WetterOnline ( https://www.wetteronline.ch )

Wetter aktuell Öhringen

Aktuelles Wetter: Öhringen (277m)

6-stündlich | Neueste Meldungen
Ortszeit Temperatur Wetter
Fr, 06.12. 19:00 0.2° C bedeckt
Fr, 06.12. 13:00 1.9° C leicht bewölkt
Fr, 06.12. 7:00 -3.8° C wolkenlos
Fr, 06.12. 1:00 -2.7° C wolkenlos
Do, 05.12. 19:00 -0.9° C wolkenlos
Do, 05.12. 13:00 3.3° C wolkenlos
Do, 05.12. 7:00 -3.7° C wolkenlos
Do, 05.12. 1:00 -2.2° C wolkig
Ortszeit Temperatur Wetter
Fr, 06.12. 21:00 0.9° C bewölkt
Fr, 06.12. 20:40 0.8° C bedeckt
Fr, 06.12. 20:30 0.5° C bewölkt
Fr, 06.12. 20:20 0.5° C bewölkt
Fr, 06.12. 20:10 0.4° C bedeckt
Fr, 06.12. 20:00 0.1° C bewölkt
Fr, 06.12. 19:50 0.1° C bewölkt
Fr, 06.12. 19:30 0.1° C bedeckt
Fr, 06.12. 19:00 0.2° C bedeckt
Ortszeit Relative Feuchte Sichtweite
Fr, 06.12. 19:00 90% 8 km
Fr, 06.12. 13:00 68% 18 km
Fr, 06.12. 7:00 95% 4.5 km
Fr, 06.12. 1:00 92% 6 km
Do, 05.12. 19:00 89% 8 km
Do, 05.12. 13:00 68% 15 km
Do, 05.12. 7:00 93% 7 km
Do, 05.12. 1:00 91% 15 km
Ortszeit Relative Feuchte Sichtweite
Fr, 06.12. 21:00 89% 9 km
Fr, 06.12. 20:40 90% -
Fr, 06.12. 20:30 89% 8 km
Fr, 06.12. 20:20 89% -
Fr, 06.12. 20:10 90% -
Fr, 06.12. 20:00 91% 6 km
Fr, 06.12. 19:50 91% -
Fr, 06.12. 19:30 91% 7 km
Fr, 06.12. 19:00 90% 8 km
Ortszeit Niederschlagsmenge Niederschlagsart
Fr, 06.12. 19:00 0.0 l/m2 in 12 Std. -
Fr, 06.12. 13:00 0.0 l/m2 in 6 Std. -
Fr, 06.12. 7:00 0.0 l/m2 in 12 Std. -
Fr, 06.12. 1:00 0.0 l/m2 in 6 Std. -
Do, 05.12. 19:00 0.0 l/m2 in 12 Std. -
Do, 05.12. 13:00 0.0 l/m2 in 6 Std. -
Do, 05.12. 7:00 0.0 l/m2 in 12 Std. -
Do, 05.12. 1:00 0.0 l/m2 in 6 Std. -
Ortszeit Niederschlagsmenge Niederschlagsart
Fr, 06.12. 21:00 0.0 l/m2 in 1 Std. -
Fr, 06.12. 20:40 keine Meldung -
Fr, 06.12. 20:30 0.0 l/m2 in 1 Std. -
Fr, 06.12. 20:20 keine Meldung -
Fr, 06.12. 20:10 keine Meldung -
Fr, 06.12. 20:00 0.0 l/m2 in 1 Std. -
Fr, 06.12. 19:50 keine Meldung -
Fr, 06.12. 19:30 0.0 l/m2 in 1 Std. -
Fr, 06.12. 19:00 0.0 l/m2 in 1 Std. -
Ortszeit Stärke Spitze Richtung
km/h Bft. km/h Grad Sektor
Fr, 06.12. 19:00 2 1 9 180° S
Fr, 06.12. 13:00 4 1 11 290° W
Fr, 06.12. 7:00 6 1 11 330° NW
Fr, 06.12. 1:00 7 2 11 160° S
Do, 05.12. 19:00 6 1 15 150° SO
Do, 05.12. 13:00 6 1 7 160° S
Do, 05.12. 7:00 4 1 11 170° S
Do, 05.12. 1:00 2 1 11 190° S
Ortszeit Stärke Spitze Richtung
km/h Bft. km/h Grad Sektor
Fr, 06.12. 21:00 2 1 9 130° SO
Fr, 06.12. 20:40 4 1 - 120° SO
Fr, 06.12. 20:30 7 2 11 130° SO
Fr, 06.12. 20:20 7 2 - 130° SO
Fr, 06.12. 20:10 6 1 - 130° SO
Fr, 06.12. 20:00 7 2 11 130° SO
Fr, 06.12. 19:50 7 2 - 130° SO
Fr, 06.12. 19:30 4 1 7 140° SO
Fr, 06.12. 19:00 2 1 7 180° S
Ortszeit Untergrenze Bedeckung Gattung
total tief tief mittel hoch
Fr, 06.12. 19:00 4500 m 8/8 8/8 - - -
Fr, 06.12. 13:00 8100 m 8/8 0/8 - - -
Fr, 06.12. 7:00 - 0/8 0/8 - - -
Fr, 06.12. 1:00 - 0/8 0/8 - - -
Do, 05.12. 19:00 - 0/8 0/8 - - -
Do, 05.12. 13:00 - 0/8 0/8 - - -
Do, 05.12. 7:00 - 0/8 0/8 - - -
Do, 05.12. 1:00 10500 m 7/8 0/8 - - -
Ortszeit Bedeckungsgrad in Achtel und Wolkenuntergrenze
Fr, 06.12. 21:00 7(1380m)
Fr, 06.12. 20:40 8(1410m)
Fr, 06.12. 20:30 7(1470m)
Fr, 06.12. 20:20 7(1470m)
Fr, 06.12. 20:10 7(1500m) 8(1500m) 8(4500m)
Fr, 06.12. 20:00 5(1500m) 8(3600m) 8(4500m)
Fr, 06.12. 19:50 5(1500m) 8(3600m) 8(4500m)
Fr, 06.12. 19:30 8(3900m) 8(5700m)
Fr, 06.12. 19:00 8(4500m)
Ortszeit Luftdruck NN (hPa) Tendenz (hPa in 3 Std.)
Fr, 06.12. 19:00 1016 - 0,8
Fr, 06.12. 13:00 1020 - 1,8
Fr, 06.12. 7:00 1022 - 0,8
Fr, 06.12. 1:00 1024 - 0,7
Do, 05.12. 19:00 1024 + 0,2
Do, 05.12. 13:00 1024 - 0,3
Do, 05.12. 7:00 1024 + 0,6
Do, 05.12. 1:00 1022 - 0,4
Ortszeit Luftdruck NN (hPa) Tendenz (hPa in 3 Std.)
Fr, 06.12. 21:00 1016 - 0,6
Fr, 06.12. 20:40 1016 keine Meldung
Fr, 06.12. 20:30 1016 - 0,6
Fr, 06.12. 20:20 1016 keine Meldung
Fr, 06.12. 20:10 1016 keine Meldung
Fr, 06.12. 20:00 1016 - 0,5
Fr, 06.12. 19:50 1016 keine Meldung
Fr, 06.12. 19:30 1016 - 0,4
Fr, 06.12. 19:00 1016 - 0,8
Ortszeit Schneehöhe (cm)
Fr, 06.12. 19:00 0
Fr, 06.12. 13:00 0
Fr, 06.12. 7:00 0
Fr, 06.12. 1:00 0
Do, 05.12. 19:00 0
Do, 05.12. 13:00 0
Do, 05.12. 7:00 0
Do, 05.12. 1:00 0
Ortszeit Schneehöhe (cm)
Fr, 06.12. 21:00 0
Fr, 06.12. 20:40 0
Fr, 06.12. 20:30 0
Fr, 06.12. 20:20 0
Fr, 06.12. 20:10 0
Fr, 06.12. 20:00 0
Fr, 06.12. 19:50 0
Fr, 06.12. 19:30 0
Fr, 06.12. 19:00 0
Link zu dieser Seite / Seite empfehlen

Das Wetter in ...